Terminal Aerodrome Forecast
Issued by NWS Riverton, WY

Home | Current Version | Previous Version | Text Only | Print | Product List | Glossary On
Versions: 1 2 3 4 5 6 7 8 9 10 11 12 13
000
FTUS45 KRIW 022300
TAFRIW
TAF
KRIW 022335Z 0300/0324 VRB04KT P6SM VCSH SCT030 OVC045
     FM030230 32006KT 4SM -SN OVC020
     FM030500 02020G30KT 2SM -SN BLSN OVC015
     FM031600 02017G27KT 5SM -SN OVC025
     FM031900 02013KT P6SM -SN OVC040=

USA.gov is the U.S. government's official web portal to all federal, state and local government web resources and services.